Time;durP1;ratioP1;P1;durP2;ratioP2;P2;SDS_P1;SDS_P2;PMS_P1;PMS_P2;Temp;Humidity;BMP_temperature;BMP_pressure;BME280_temperature;BME280_humidity;BME280_pressure;Samples;Min_cycle;Max_cycle;Signal;HPM_P1;HPM_P2
2021/09/15 00:01:03;;;;;;;2.73;2.23;;;;;;;;;;4478841;28;20577;-63
2021/09/15 00:03:14;;;;;;;3.13;2.50;;;;;;;;;;4478891;28;20038;-63
2021/09/15 00:05:24;;;;;;;2.60;2.20;;;;;;;;;;4478578;28;20034;-63
2021/09/15 00:07:35;;;;;;;2.93;2.40;;;;;;;;;;4478252;28;20043;-63
2021/09/15 00:09:45;;;;;;;2.83;2.20;;;;;;;;;;4478652;28;20042;-63
2021/09/15 00:11:55;;;;;;;2.80;2.50;;;;;;;;;;4477729;28;28242;-63
2021/09/15 00:14:06;;;;;;;3.60;2.80;;;;;;;;;;4479588;28;20253;-64
2021/09/15 00:16:16;;;;;;;4.10;2.67;;;;;;;;;;4479593;28;20427;-64
2021/09/15 00:18:27;;;;;;;3.20;2.13;;;;;;;;;;4479421;28;24670;-64
2021/09/15 00:20:37;;;;;;;3.17;2.53;;;;;;;;;;4479877;28;20872;-64
2021/09/15 00:22:48;;;;;;;2.43;2.23;;;;;;;;;;4478935;28;20046;-63
2021/09/15 00:24:58;;;;;;;3.03;2.70;;;;;;;;;;4479665;28;20065;-64
2021/09/15 00:27:08;;;;;;;3.07;2.37;;;;;;;;;;4470157;28;20314;-64
2021/09/15 00:29:19;;;;;;;4.40;2.80;;;;;;;;;;4479003;28;20039;-63
2021/09/15 00:31:29;;;;;;;3.07;2.50;;;;;;;;;;4478164;28;20060;-63
2021/09/15 00:33:40;;;;;;;3.13;2.50;;;;;;;;;;4480107;28;20357;-63
2021/09/15 00:35:51;;;;;;;3.00;2.50;;;;;;;;;;4458428;28;20042;-63
2021/09/15 00:38:01;;;;;;;3.87;2.63;;;;;;;;;;4479517;28;20148;-63
2021/09/15 00:40:12;;;;;;;3.27;2.60;;;;;;;;;;4480514;28;20074;-63
2021/09/15 00:42:22;;;;;;;3.37;2.70;;;;;;;;;;4475931;28;20657;-62
2021/09/15 00:44:33;;;;;;;2.60;2.40;;;;;;;;;;4479068;28;20035;-63
2021/09/15 00:46:44;;;;;;;2.80;2.43;;;;;;;;;;4476219;28;20038;-63
2021/09/15 00:48:54;;;;;;;3.33;2.60;;;;;;;;;;4467929;28;20301;-63
2021/09/15 00:51:05;;;;;;;2.83;2.57;;;;;;;;;;4477937;28;20066;-63
2021/09/15 00:53:16;;;;;;;3.08;2.55;;;;;;;;;;4479054;28;20074;-63
2021/09/15 00:55:27;;;;;;;2.33;2.13;;;;;;;;;;4479341;28;20035;-63
2021/09/15 00:57:38;;;;;;;3.45;2.53;;;;;;;;;;4477068;28;20133;-63
2021/09/15 00:59:49;;;;;;;2.80;2.30;;;;;;;;;;4476356;28;20097;-63
2021/09/15 01:02:00;;;;;;;3.00;2.50;;;;;;;;;;4469021;28;20027;-63
2021/09/15 01:04:11;;;;;;;2.95;2.30;;;;;;;;;;4479678;28;20042;-63
2021/09/15 01:06:26;;;;;;;2.85;2.42;;;;;;;;;;4467368;28;20047;-63
2021/09/15 01:08:37;;;;;;;3.05;2.75;;;;;;;;;;4476519;28;20038;-63
2021/09/15 01:10:49;;;;;;;3.08;2.63;;;;;;;;;;4460184;28;20039;-63
2021/09/15 01:13:06;;;;;;;3.47;2.40;;;;;;;;;;4476591;28;20041;-63
2021/09/15 01:15:35;;;;;;;3.47;2.53;;;;;;;;;;4478050;28;20137;-63
2021/09/15 01:18:18;;;;;;;3.05;2.47;;;;;;;;;;4479725;28;20373;-63
2021/09/15 01:20:57;;;;;;;4.55;2.85;;;;;;;;;;4456467;28;20043;-63
2021/09/15 01:23:26;;;;;;;3.13;2.42;;;;;;;;;;4476826;28;20042;-63
2021/09/15 01:26:07;;;;;;;4.20;2.53;;;;;;;;;;4477692;28;20044;-63
2021/09/15 01:28:38;;;;;;;;;;;;;;;;;;4477911;28;20034;-63
2021/09/15 01:30:53;;;;;;;2.50;2.20;;;;;;;;;;4476843;28;19930;-63
2021/09/15 01:33:04;;;;;;;3.50;2.70;;;;;;;;;;4475381;28;20918;-63
2021/09/15 01:35:16;;;;;;;2.95;2.40;;;;;;;;;;4476517;28;20082;-63
2021/09/15 01:37:27;;;;;;;3.03;2.73;;;;;;;;;;4476889;28;20799;-63
2021/09/15 01:39:43;;;;;;;4.00;2.60;;;;;;;;;;4476014;28;20031;-63
2021/09/15 01:41:57;;;;;;;3.73;2.63;;;;;;;;;;4478024;28;21250;-63
2021/09/15 01:44:08;;;;;;;3.78;2.22;;;;;;;;;;4477102;28;20034;-63
2021/09/15 01:46:18;;;;;;;3.73;2.60;;;;;;;;;;4477425;28;20057;-63
2021/09/15 01:48:29;;;;;;;3.47;2.60;;;;;;;;;;4476600;28;20043;-63
2021/09/15 01:50:40;;;;;;;2.63;2.40;;;;;;;;;;4474748;28;20026;-63
2021/09/15 01:52:51;;;;;;;3.13;2.60;;;;;;;;;;4476616;28;20053;-63
2021/09/15 01:55:18;;;;;;;3.13;2.63;;;;;;;;;;4476651;28;20035;-63
2021/09/15 01:57:29;;;;;;;2.88;2.35;;;;;;;;;;4476991;28;20513;-63
2021/09/15 02:00:12;;;;;;;3.22;2.80;;;;;;;;;;4474982;28;20042;-63
2021/09/15 02:02:25;;;;;;;3.65;2.50;;;;;;;;;;4478824;28;20177;-63
2021/09/15 02:04:41;;;;;;;2.97;2.40;;;;;;;;;;4475444;28;20039;-63
2021/09/15 02:07:07;;;;;;;3.72;2.45;;;;;;;;;;4468915;28;20042;-63
2021/09/15 02:09:30;;;;;;;3.13;2.40;;;;;;;;;;4476749;28;20166;-63
2021/09/15 02:11:54;;;;;;;3.17;2.40;;;;;;;;;;4475056;28;20035;-63
2021/09/15 02:14:05;;;;;;;3.00;2.50;;;;;;;;;;4476806;28;20385;-63
2021/09/15 02:16:16;;;;;;;3.08;2.60;;;;;;;;;;4477049;28;20190;-63
2021/09/15 02:18:29;;;;;;;3.63;2.55;;;;;;;;;;4476977;28;20066;-63
2021/09/15 02:21:00;;;;;;;2.70;2.45;;;;;;;;;;4476118;28;20042;-62
2021/09/15 02:23:31;;;;;;;4.03;2.45;;;;;;;;;;4477144;28;20149;-63
2021/09/15 02:25:54;;;;;;;2.53;2.33;;;;;;;;;;4475454;28;20495;-63
2021/09/15 02:28:15;;;;;;;3.40;2.50;;;;;;;;;;4476911;28;20090;-62
2021/09/15 02:30:46;;;;;;;3.60;2.63;;;;;;;;;;4476152;28;20038;-62
2021/09/15 02:33:07;;;;;;;2.85;2.50;;;;;;;;;;4474990;28;20047;-64
2021/09/15 02:35:38;;;;;;;3.17;2.67;;;;;;;;;;4467515;28;20159;-63
2021/09/15 02:38:03;;;;;;;3.35;2.50;;;;;;;;;;4475131;28;20105;-63
2021/09/15 02:40:40;;;;;;;2.80;2.40;;;;;;;;;;4463338;28;20150;-63
2021/09/15 02:43:01;;;;;;;3.85;2.40;;;;;;;;;;4473449;28;20045;-63
2021/09/15 02:45:24;;;;;;;3.65;2.60;;;;;;;;;;4470460;28;20518;-63
2021/09/15 02:47:56;;;;;;;;;;;;;;;;;;4476844;28;20062;-63
2021/09/15 02:50:26;;;;;;;3.00;2.50;;;;;;;;;;4474385;28;19922;-63
2021/09/15 02:52:51;;;;;;;3.00;2.50;;;;;;;;;;4476369;28;20043;-63
2021/09/15 02:55:21;;;;;;;4.28;2.45;;;;;;;;;;4476218;28;20650;-63
2021/09/15 02:57:34;;;;;;;2.92;2.45;;;;;;;;;;4476171;28;20326;-64
2021/09/15 03:00:05;;;;;;;2.92;2.40;;;;;;;;;;4475490;28;20046;-62
2021/09/15 03:02:30;;;;;;;3.28;2.55;;;;;;;;;;4463198;28;20046;-63
2021/09/15 03:05:13;;;;;;;3.55;2.80;;;;;;;;;;4447599;28;20139;-63
2021/09/15 03:07:47;;;;;;;4.50;2.45;;;;;;;;;;4474490;28;20050;-63
2021/09/15 03:09:57;;;;;;;2.37;2.17;;;;;;;;;;4475056;28;20039;-63
2021/09/15 03:12:08;;;;;;;2.60;2.40;;;;;;;;;;4475732;28;22308;-63
2021/09/15 03:14:19;;;;;;;3.13;2.70;;;;;;;;;;4473985;28;20042;-63
2021/09/15 03:16:30;;;;;;;4.00;2.95;;;;;;;;;;4474574;28;20566;-63
2021/09/15 03:18:45;;;;;;;2.75;2.45;;;;;;;;;;4462515;28;20034;-63
2021/09/15 03:20:55;;;;;;;2.93;2.33;;;;;;;;;;4477538;28;20035;-63
2021/09/15 03:23:06;;;;;;;3.80;2.70;;;;;;;;;;4460993;28;20027;-64
2021/09/15 03:25:17;;;;;;;3.05;2.70;;;;;;;;;;4473378;28;21373;-63
2021/09/15 03:27:27;;;;;;;4.57;2.40;;;;;;;;;;4476467;28;20159;-63
2021/09/15 03:29:39;;;;;;;3.25;2.65;;;;;;;;;;4475177;28;20145;-63
2021/09/15 03:31:50;;;;;;;2.73;2.47;;;;;;;;;;4473508;28;20805;-63
2021/09/15 03:34:00;;;;;;;3.27;2.50;;;;;;;;;;4474483;28;20039;-63
2021/09/15 03:36:10;;;;;;;3.10;2.50;;;;;;;;;;4476005;28;20033;-63
2021/09/15 03:38:21;;;;;;;3.00;2.63;;;;;;;;;;4474258;28;20039;-63
2021/09/15 03:40:31;;;;;;;3.17;2.70;;;;;;;;;;4475716;28;20147;-62
2021/09/15 03:42:42;;;;;;;3.00;2.70;;;;;;;;;;4464407;28;20027;-63
2021/09/15 03:44:52;;;;;;;4.93;2.60;;;;;;;;;;4467420;28;20125;-63
2021/09/15 03:47:03;;;;;;;3.07;2.73;;;;;;;;;;4459984;28;20516;-63
2021/09/15 03:49:14;;;;;;;3.17;2.80;;;;;;;;;;4473357;28;20112;-63
2021/09/15 03:51:25;;;;;;;2.80;2.47;;;;;;;;;;4467588;28;20033;-63
2021/09/15 03:53:36;;;;;;;3.20;2.65;;;;;;;;;;4475494;28;20037;-63
2021/09/15 03:55:46;;;;;;;3.03;2.57;;;;;;;;;;4468354;28;20042;-63
2021/09/15 03:57:57;;;;;;;3.03;2.40;;;;;;;;;;4476004;28;20487;-63
2021/09/15 04:00:08;;;;;;;3.00;2.60;;;;;;;;;;4463784;28;20586;-64
2021/09/15 04:02:23;;;;;;;3.28;2.78;;;;;;;;;;4475756;28;20039;-63
2021/09/15 04:04:34;;;;;;;3.20;2.50;;;;;;;;;;4474666;28;20920;-63
2021/09/15 04:06:45;;;;;;;4.22;2.92;;;;;;;;;;4469460;28;20049;-63
2021/09/15 04:08:55;;;;;;;3.00;2.60;;;;;;;;;;4475738;28;20058;-63
2021/09/15 04:11:07;;;;;;;3.38;2.58;;;;;;;;;;4475858;28;20346;-63
2021/09/15 04:13:17;;;;;;;3.50;2.90;;;;;;;;;;4477306;28;20034;-63
2021/09/15 04:15:28;;;;;;;3.77;2.80;;;;;;;;;;4474494;28;20551;-63
2021/09/15 04:17:38;;;;;;;4.90;3.20;;;;;;;;;;4474850;28;20040;-62
2021/09/15 04:19:50;;;;;;;5.43;3.10;;;;;;;;;;4473915;28;20045;-63
2021/09/15 04:22:02;;;;;;;3.20;2.80;;;;;;;;;;4475168;28;20035;-63
2021/09/15 04:31:36;;;;;;;3.33;2.55;;;;;;;;;;4432186;28;20130;-63
2021/09/15 04:33:47;;;;;;;3.10;2.73;;;;;;;;;;4474257;28;20423;-63
2021/09/15 04:35:57;;;;;;;3.73;2.63;;;;;;;;;;4474801;28;20117;-63
2021/09/15 04:38:08;;;;;;;3.43;2.80;;;;;;;;;;4468289;28;20050;-63
2021/09/15 04:40:19;;;;;;;2.88;2.55;;;;;;;;;;4469175;28;20142;-63
2021/09/15 04:42:30;;;;;;;3.55;2.72;;;;;;;;;;4459966;28;20066;-63
2021/09/15 04:44:41;;;;;;;3.08;2.60;;;;;;;;;;4460364;28;20039;-63
2021/09/15 04:46:52;;;;;;;3.40;2.77;;;;;;;;;;4477988;28;20047;-63
2021/09/15 04:49:03;;;;;;;2.55;2.35;;;;;;;;;;4463142;28;20631;-63
2021/09/15 04:51:14;;;;;;;2.97;2.50;;;;;;;;;;4475450;28;20043;-63
2021/09/15 04:53:28;;;;;;;2.70;2.38;;;;;;;;;;4477911;28;20162;-63
2021/09/15 04:55:39;;;;;;;3.03;2.50;;;;;;;;;;4476725;28;20042;-62
2021/09/15 04:57:50;;;;;;;4.05;2.95;;;;;;;;;;4477103;28;20947;-63
2021/09/15 05:00:01;;;;;;;3.47;2.53;;;;;;;;;;4476369;28;20452;-62
2021/09/15 05:02:12;;;;;;;3.70;2.72;;;;;;;;;;4476864;28;20710;-63
2021/09/15 05:04:24;;;;;;;4.05;2.80;;;;;;;;;;4459558;28;20118;-63
2021/09/15 05:06:49;;;;;;;2.97;2.67;;;;;;;;;;4462904;28;20038;-63
2021/09/15 05:09:00;;;;;;;5.00;3.27;;;;;;;;;;4478218;28;20046;-62
2021/09/15 05:11:10;;;;;;;3.27;2.50;;;;;;;;;;4477928;28;20038;-63
2021/09/15 05:13:20;;;;;;;4.03;3.03;;;;;;;;;;4478511;28;20039;-63
2021/09/15 05:15:33;;;;;;;3.53;2.80;;;;;;;;;;4475062;28;20171;-63
2021/09/15 05:17:47;;;;;;;4.00;2.72;;;;;;;;;;4470806;28;20066;-63
2021/09/15 05:19:58;;;;;;;;;;;;;;;;;;4462895;28;20101;-63
2021/09/15 05:22:10;;;;;;;3.08;2.60;;;;;;;;;;4477604;28;20104;-63
2021/09/15 05:24:20;;;;;;;3.93;2.90;;;;;;;;;;4477317;28;20450;-63
2021/09/15 05:26:31;;;;;;;3.67;2.93;;;;;;;;;;4472936;28;20670;-63
2021/09/15 05:28:41;;;;;;;3.47;2.63;;;;;;;;;;4474621;28;20826;-63
2021/09/15 05:30:52;;;;;;;4.40;2.77;;;;;;;;;;4476152;28;20030;-63
2021/09/15 05:33:02;;;;;;;3.20;2.70;;;;;;;;;;4476248;28;20027;-63
2021/09/15 05:35:14;;;;;;;4.05;2.80;;;;;;;;;;4473474;28;20035;-63
2021/09/15 05:37:26;;;;;;;4.68;3.17;;;;;;;;;;4475686;28;20034;-63
2021/09/15 05:39:37;;;;;;;3.57;2.73;;;;;;;;;;4474989;28;20054;-62
2021/09/15 05:41:47;;;;;;;4.50;3.23;;;;;;;;;;4474318;28;20035;-62
2021/09/15 05:43:58;;;;;;;3.92;2.80;;;;;;;;;;4475649;28;20039;-63
2021/09/15 05:46:09;;;;;;;;;;;;;;;;;;4474735;28;20673;-63
2021/09/15 05:48:20;;;;;;;4.72;3.17;;;;;;;;;;4472624;28;19917;-62
2021/09/15 05:50:30;;;;;;;3.83;3.07;;;;;;;;;;4474892;28;20078;-63
2021/09/15 05:52:41;;;;;;;5.00;3.00;;;;;;;;;;4475750;28;20138;-62
2021/09/15 05:54:51;;;;;;;4.47;3.40;;;;;;;;;;4476186;28;20078;-62
2021/09/15 05:57:02;;;;;;;3.35;2.88;;;;;;;;;;4475906;28;20145;-62
2021/09/15 05:59:13;;;;;;;5.17;3.17;;;;;;;;;;4474881;28;20030;-62
2021/09/15 06:01:23;;;;;;;3.77;3.10;;;;;;;;;;4459592;28;20035;-62
2021/09/15 06:03:34;;;;;;;3.67;3.20;;;;;;;;;;4475058;28;20370;-62
2021/09/15 06:06:10;;;;;;;3.78;2.92;;;;;;;;;;4469449;28;20049;-62
2021/09/15 06:08:22;;;;;;;3.83;2.92;;;;;;;;;;4474231;28;20041;-62
2021/09/15 06:10:33;;;;;;;3.28;2.95;;;;;;;;;;4474943;28;20038;-61
2021/09/15 06:12:43;;;;;;;3.63;2.90;;;;;;;;;;4475577;28;20035;-61
2021/09/15 06:14:54;;;;;;;3.27;2.77;;;;;;;;;;4475814;28;20110;-64
2021/09/15 06:17:06;;;;;;;3.00;2.70;;;;;;;;;;4476740;28;20070;-61
2021/09/15 06:19:16;;;;;;;3.35;2.92;;;;;;;;;;4474040;28;20681;-61
2021/09/15 06:21:45;;;;;;;3.58;2.95;;;;;;;;;;4476639;28;20082;-61
2021/09/15 06:24:18;;;;;;;4.05;3.40;;;;;;;;;;4473546;28;20034;-61
2021/09/15 06:26:29;;;;;;;4.13;3.10;;;;;;;;;;4473853;28;20050;-61
2021/09/15 06:28:39;;;;;;;3.30;3.00;;;;;;;;;;4475944;28;20037;-61
2021/09/15 06:30:50;;;;;;;3.83;3.20;;;;;;;;;;4475882;28;20942;-61
2021/09/15 06:33:03;;;;;;;3.53;3.10;;;;;;;;;;4473987;28;20510;-61
2021/09/15 06:35:13;;;;;;;5.00;3.57;;;;;;;;;;4475973;28;20081;-61
2021/09/15 06:37:24;;;;;;;4.78;3.65;;;;;;;;;;4477147;28;20034;-62
2021/09/15 06:39:34;;;;;;;4.73;3.73;;;;;;;;;;4474701;28;20039;-61
2021/09/15 06:41:45;;;;;;;5.10;4.00;;;;;;;;;;4473711;28;27746;-62
2021/09/15 06:43:55;;;;;;;5.13;3.73;;;;;;;;;;4476485;28;20065;-61
2021/09/15 06:46:06;;;;;;;5.17;3.87;;;;;;;;;;4474098;28;20037;-61
2021/09/15 06:48:17;;;;;;;4.57;3.67;;;;;;;;;;4474974;28;20038;-61
2021/09/15 06:50:28;;;;;;;4.60;3.78;;;;;;;;;;4474585;28;20037;-62
2021/09/15 06:52:39;;;;;;;4.07;3.63;;;;;;;;;;4474575;28;20045;-61
2021/09/15 06:54:50;;;;;;;4.30;3.60;;;;;;;;;;4466112;28;20031;-62
2021/09/15 06:57:01;;;;;;;5.13;3.88;;;;;;;;;;4475177;28;20041;-61
2021/09/15 06:59:11;;;;;;;4.67;3.87;;;;;;;;;;4473992;28;20073;-61
2021/09/15 07:01:24;;;;;;;5.23;3.70;;;;;;;;;;4474188;28;20035;-61
2021/09/15 07:03:34;;;;;;;4.85;3.75;;;;;;;;;;4473648;28;21247;-61
2021/09/15 07:05:45;;;;;;;4.43;3.70;;;;;;;;;;4475463;28;20022;-61
2021/09/15 07:07:55;;;;;;;5.90;3.63;;;;;;;;;;4473203;28;20048;-61
2021/09/15 07:10:07;;;;;;;4.80;4.03;;;;;;;;;;4477287;28;20038;-61
2021/09/15 07:12:18;;;;;;;5.50;3.88;;;;;;;;;;4459410;28;20046;-63
2021/09/15 07:14:28;;;;;;;4.67;4.17;;;;;;;;;;4474348;28;20135;-62
2021/09/15 07:16:39;;;;;;;5.50;4.20;;;;;;;;;;4474627;28;20403;-61
2021/09/15 07:18:49;;;;;;;4.53;3.87;;;;;;;;;;4463477;28;20468;-61
2021/09/15 07:21:00;;;;;;;4.80;3.90;;;;;;;;;;4475776;28;20031;-62
2021/09/15 07:23:10;;;;;;;4.77;3.60;;;;;;;;;;4475846;28;20038;-62
2021/09/15 07:25:20;;;;;;;4.27;3.87;;;;;;;;;;4472489;28;20037;-62
2021/09/15 07:27:31;;;;;;;5.53;4.17;;;;;;;;;;4475481;28;20038;-62
2021/09/15 07:29:41;;;;;;;5.57;4.40;;;;;;;;;;4474365;28;20050;-62
2021/09/15 07:31:52;;;;;;;5.70;4.10;;;;;;;;;;4474185;28;20041;-61
2021/09/15 07:34:02;;;;;;;4.70;3.97;;;;;;;;;;4475289;28;20018;-60
2021/09/15 07:36:13;;;;;;;5.13;4.13;;;;;;;;;;4475750;28;20058;-61
2021/09/15 07:38:23;;;;;;;6.10;4.50;;;;;;;;;;4476050;28;20126;-61
2021/09/15 07:40:33;;;;;;;6.30;4.10;;;;;;;;;;4473896;28;20594;-61
2021/09/15 07:42:45;;;;;;;5.93;4.20;;;;;;;;;;4475975;28;20121;-61
2021/09/15 07:44:55;;;;;;;6.43;4.18;;;;;;;;;;4476153;28;20034;-61
2021/09/15 07:47:05;;;;;;;5.87;4.83;;;;;;;;;;4476255;28;20896;-61
2021/09/15 07:49:16;;;;;;;5.67;4.47;;;;;;;;;;4475918;28;20680;-62
2021/09/15 07:51:26;;;;;;;4.87;4.30;;;;;;;;;;4475979;28;20031;-62
2021/09/15 07:53:37;;;;;;;6.27;4.80;;;;;;;;;;4473491;28;20038;-61
2021/09/15 07:55:48;;;;;;;6.22;4.60;;;;;;;;;;4476260;28;20038;-61
2021/09/15 07:57:58;;;;;;;6.07;4.30;;;;;;;;;;4473894;28;20049;-62
2021/09/15 08:00:09;;;;;;;5.40;4.70;;;;;;;;;;4473628;28;20418;-61
2021/09/15 08:02:25;;;;;;;5.53;4.30;;;;;;;;;;4475266;28;20061;-61
2021/09/15 08:04:36;;;;;;;5.27;4.30;;;;;;;;;;4474469;28;20113;-64
2021/09/15 08:06:46;;;;;;;6.27;4.87;;;;;;;;;;4474153;28;20038;-61
2021/09/15 08:08:57;;;;;;;5.43;4.67;;;;;;;;;;4475856;28;20035;-60
2021/09/15 08:11:07;;;;;;;5.87;4.70;;;;;;;;;;4473294;28;20034;-59
2021/09/15 08:13:23;;;;;;;5.90;4.33;;;;;;;;;;4477733;28;20043;-61
2021/09/15 08:15:34;;;;;;;6.00;4.40;;;;;;;;;;4478049;28;20081;-58
2021/09/15 08:17:46;;;;;;;5.80;4.28;;;;;;;;;;4477984;28;20041;-59
2021/09/15 08:19:56;;;;;;;4.78;4.07;;;;;;;;;;4461325;28;20061;-60
2021/09/15 08:22:07;;;;;;;6.33;4.70;;;;;;;;;;4454289;28;20049;-61
2021/09/15 08:24:17;;;;;;;5.40;4.50;;;;;;;;;;4446177;28;20093;-61
2021/09/15 08:26:28;;;;;;;6.00;5.10;;;;;;;;;;4455583;28;20059;-60
2021/09/15 08:28:39;;;;;;;6.07;4.80;;;;;;;;;;4450245;28;20028;-61
2021/09/15 08:30:50;;;;;;;;;;;;;;;;;;4474168;28;20085;-62
2021/09/15 08:33:00;;;;;;;8.47;5.33;;;;;;;;;;4472968;28;19913;-61
2021/09/15 08:35:11;;;;;;;5.90;3.97;;;;;;;;;;4460101;28;20039;-62
2021/09/15 08:37:22;;;;;;;5.80;4.70;;;;;;;;;;4466181;28;20110;-63
2021/09/15 08:39:32;;;;;;;6.53;5.13;;;;;;;;;;4460445;28;20558;-59
2021/09/15 08:41:43;;;;;;;6.97;4.93;;;;;;;;;;4462263;28;20046;-59
2021/09/15 08:43:53;;;;;;;5.95;4.80;;;;;;;;;;4471499;28;20034;-60
2021/09/15 08:46:05;;;;;;;5.17;4.23;;;;;;;;;;4476650;28;25662;-59
2021/09/15 08:48:21;;;;;;;6.00;4.45;;;;;;;;;;4469503;28;20074;-60
2021/09/15 08:50:31;;;;;;;4.80;4.30;;;;;;;;;;4473074;28;20518;-60
2021/09/15 08:52:42;;;;;;;6.20;4.90;;;;;;;;;;4474645;28;20038;-60
2021/09/15 08:54:54;;;;;;;5.90;4.43;;;;;;;;;;4475327;28;20034;-61
2021/09/15 08:57:04;;;;;;;4.75;3.85;;;;;;;;;;4476036;28;20088;-61
2021/09/15 08:59:15;;;;;;;6.53;4.80;;;;;;;;;;4475677;28;20033;-61
2021/09/15 09:01:25;;;;;;;6.63;4.80;;;;;;;;;;4475681;28;20652;-62
2021/09/15 09:03:41;;;;;;;5.40;4.13;;;;;;;;;;4465250;28;20027;-61
2021/09/15 09:05:51;;;;;;;5.72;4.22;;;;;;;;;;4476387;28;20042;-61
2021/09/15 09:08:02;;;;;;;5.57;4.60;;;;;;;;;;4461750;28;20042;-61
2021/09/15 09:10:14;;;;;;;5.67;4.70;;;;;;;;;;4477442;28;20026;-61
2021/09/15 09:12:27;;;;;;;5.82;4.80;;;;;;;;;;4475959;28;20294;-61
2021/09/15 09:14:38;;;;;;;6.10;4.43;;;;;;;;;;4467539;28;20053;-61
2021/09/15 09:16:49;;;;;;;5.73;4.43;;;;;;;;;;4476418;28;20663;-61
2021/09/15 09:19:10;;;;;;;5.20;4.40;;;;;;;;;;4467657;28;20546;-61
2021/09/15 09:21:29;;;;;;;6.57;4.38;;;;;;;;;;4473731;28;20026;-60
2021/09/15 09:23:40;;;;;;;5.97;4.55;;;;;;;;;;4475430;28;20047;-61
2021/09/15 09:25:54;;;;;;;5.97;4.57;;;;;;;;;;4474020;28;20754;-61
2021/09/15 09:28:25;;;;;;;5.47;4.35;;;;;;;;;;4473779;28;20645;-61
2021/09/15 09:30:38;;;;;;;5.20;4.45;;;;;;;;;;4467838;28;20047;-61
2021/09/15 09:32:52;;;;;;;5.82;4.30;;;;;;;;;;4476898;28;20834;-61
2021/09/15 09:35:02;;;;;;;5.68;4.22;;;;;;;;;;4476225;28;20034;-61
2021/09/15 09:37:18;;;;;;;5.00;3.90;;;;;;;;;;4474997;28;20411;-61
2021/09/15 09:39:46;;;;;;;4.60;3.83;;;;;;;;;;4475900;28;20085;-61
2021/09/15 09:41:57;;;;;;;5.18;3.90;;;;;;;;;;4473642;28;20841;-61
2021/09/15 09:44:07;;;;;;;5.30;3.97;;;;;;;;;;4476665;28;20125;-61
2021/09/15 09:46:20;;;;;;;;;;;;;;;;;;4451610;28;20531;-61
2021/09/15 09:48:45;;;;;;;4.80;3.60;;;;;;;;;;4474688;28;19973;-61
2021/09/15 09:50:56;;;;;;;5.05;4.18;;;;;;;;;;4476108;28;20994;-61
2021/09/15 09:53:06;;;;;;;4.87;3.77;;;;;;;;;;4474526;28;20023;-62
2021/09/15 09:55:18;;;;;;;4.77;3.40;;;;;;;;;;4474656;28;20038;-62
2021/09/15 09:57:29;;;;;;;3.47;2.90;;;;;;;;;;4473920;28;20042;-62
2021/09/15 09:59:41;;;;;;;5.07;3.20;;;;;;;;;;4475108;28;20100;-62
2021/09/15 10:02:01;;;;;;;3.95;2.85;;;;;;;;;;4466585;28;20543;-62
2021/09/15 10:04:14;;;;;;;4.65;3.20;;;;;;;;;;4461261;28;20127;-62
2021/09/15 10:06:24;;;;;;;4.97;2.85;;;;;;;;;;4457209;28;20195;-62
2021/09/15 10:08:35;;;;;;;3.43;2.97;;;;;;;;;;4473253;28;20054;-61
2021/09/15 10:10:47;;;;;;;3.20;2.37;;;;;;;;;;4473988;28;20034;-61
2021/09/15 10:12:58;;;;;;;3.78;2.30;;;;;;;;;;4475867;28;20035;-62
2021/09/15 10:15:09;;;;;;;3.00;2.10;;;;;;;;;;4474790;28;20464;-62
2021/09/15 10:17:23;;;;;;;4.78;2.42;;;;;;;;;;4472359;28;20877;-61
2021/09/15 10:19:39;;;;;;;4.20;2.30;;;;;;;;;;4473447;28;20268;-62
2021/09/15 10:21:58;;;;;;;2.92;2.20;;;;;;;;;;4473108;28;20031;-61
2021/09/15 10:24:08;;;;;;;3.65;2.20;;;;;;;;;;4474891;28;20486;-60
2021/09/15 10:26:38;;;;;;;3.07;2.00;;;;;;;;;;4472113;28;20045;-61
2021/09/15 10:29:26;;;;;;;2.00;1.70;;;;;;;;;;4473234;28;20035;-60
2021/09/15 10:31:59;;;;;;;2.10;1.80;;;;;;;;;;4473577;28;20916;-60
2021/09/15 10:34:09;;;;;;;3.00;1.80;;;;;;;;;;4474031;28;20076;-60
2021/09/15 10:36:19;;;;;;;2.60;1.77;;;;;;;;;;4475242;28;20145;-60
2021/09/15 10:38:53;;;;;;;2.30;1.70;;;;;;;;;;4473439;28;20495;-61
2021/09/15 10:41:32;;;;;;;3.03;1.75;;;;;;;;;;4463601;28;20137;-60
2021/09/15 10:43:43;;;;;;;2.63;1.58;;;;;;;;;;4472706;28;20086;-61
2021/09/15 10:46:23;;;;;;;2.67;1.65;;;;;;;;;;4464929;28;20042;-61
2021/09/15 10:48:34;;;;;;;2.05;1.60;;;;;;;;;;4474872;28;20087;-60
2021/09/15 10:50:44;;;;;;;2.13;1.60;;;;;;;;;;4472214;28;20055;-61
2021/09/15 10:53:04;;;;;;;2.20;1.50;;;;;;;;;;4474564;28;20047;-61
2021/09/15 10:55:23;;;;;;;2.80;1.67;;;;;;;;;;4472801;28;20648;-61
2021/09/15 10:57:36;;;;;;;3.95;1.60;;;;;;;;;;4475434;28;20825;-60
2021/09/15 10:59:53;;;;;;;2.55;1.73;;;;;;;;;;4473789;28;20487;-60
2021/09/15 11:02:04;;;;;;;2.47;1.73;;;;;;;;;;4472824;28;21009;-61
2021/09/15 11:04:31;;;;;;;2.30;1.52;;;;;;;;;;4473687;28;20061;-61
2021/09/15 11:06:42;;;;;;;2.10;1.70;;;;;;;;;;4472562;28;20674;-61
2021/09/15 11:08:53;;;;;;;2.57;1.70;;;;;;;;;;4465135;28;20062;-60
2021/09/15 11:11:05;;;;;;;;;;;;;;;;;;4474625;28;20350;-61
2021/09/15 11:13:27;;;;;;;4.07;2.00;;;;;;;;;;4470895;28;20017;-62
2021/09/15 11:15:43;;;;;;;2.30;1.70;;;;;;;;;;4464150;28;20027;-61
2021/09/15 11:17:55;;;;;;;1.70;1.60;;;;;;;;;;4454857;28;20106;-61
2021/09/15 11:20:05;;;;;;;1.92;1.67;;;;;;;;;;4457959;28;20042;-60
2021/09/15 11:22:16;;;;;;;3.08;1.50;;;;;;;;;;4474196;28;20039;-60
2021/09/15 11:24:31;;;;;;;2.20;1.60;;;;;;;;;;4462998;28;20491;-61
2021/09/15 11:26:54;;;;;;;2.67;1.58;;;;;;;;;;4472639;28;20038;-60
2021/09/15 11:29:05;;;;;;;3.20;1.50;;;;;;;;;;4471167;28;20085;-60
2021/09/15 11:31:15;;;;;;;3.10;1.60;;;;;;;;;;4472528;28;20081;-61
2021/09/15 11:33:35;;;;;;;1.50;1.40;;;;;;;;;;4461750;28;20727;-60
2021/09/15 11:35:46;;;;;;;1.95;1.40;;;;;;;;;;4454146;28;20707;-61
2021/09/15 11:37:56;;;;;;;2.00;1.60;;;;;;;;;;4459264;28;30496;-60
2021/09/15 11:40:07;;;;;;;2.30;1.50;;;;;;;;;;4453263;28;20028;-61
2021/09/15 11:42:20;;;;;;;1.90;1.53;;;;;;;;;;4442945;28;20054;-61
2021/09/15 11:44:31;;;;;;;1.90;1.58;;;;;;;;;;4432848;28;20977;-60
2021/09/15 11:46:42;;;;;;;2.85;1.70;;;;;;;;;;4455501;28;20142;-61
2021/09/15 11:48:53;;;;;;;2.30;1.60;;;;;;;;;;4440080;28;20046;-60
2021/09/15 11:51:18;;;;;;;1.90;1.40;;;;;;;;;;4454152;28;25403;-60
2021/09/15 11:53:29;;;;;;;2.80;1.70;;;;;;;;;;4474902;28;20158;-62
2021/09/15 11:55:51;;;;;;;1.65;1.30;;;;;;;;;;4461380;28;20034;-60
2021/09/15 11:58:03;;;;;;;2.03;1.50;;;;;;;;;;4450076;28;20212;-61
2021/09/15 12:00:14;;;;;;;1.35;1.23;;;;;;;;;;4459334;28;20031;-60
2021/09/15 12:02:24;;;;;;;2.45;1.48;;;;;;;;;;4458895;28;20066;-61
2021/09/15 12:04:36;;;;;;;2.10;1.70;;;;;;;;;;4457377;28;20045;-62
2021/09/15 12:06:47;;;;;;;1.30;1.17;;;;;;;;;;4459249;28;20047;-61
2021/09/15 12:08:58;;;;;;;2.88;1.63;;;;;;;;;;4439298;28;20085;-61
2021/09/15 12:11:09;;;;;;;3.20;1.40;;;;;;;;;;4458406;28;20031;-60
2021/09/15 12:13:28;;;;;;;2.63;1.55;;;;;;;;;;4420872;28;20623;-60
2021/09/15 12:16:03;;;;;;;1.65;1.33;;;;;;;;;;4457603;28;20026;-60
2021/09/15 12:18:16;;;;;;;2.33;1.40;;;;;;;;;;4455447;28;20055;-65
2021/09/15 12:20:41;;;;;;;1.33;1.13;;;;;;;;;;4464560;28;20022;-65
2021/09/15 12:22:52;;;;;;;1.40;1.10;;;;;;;;;;4445974;28;20662;-65
2021/09/15 12:25:22;;;;;;;1.88;1.20;;;;;;;;;;4453781;28;20032;-63
2021/09/15 12:27:34;;;;;;;1.98;1.48;;;;;;;;;;4449049;28;20119;-64
2021/09/15 12:30:00;;;;;;;2.42;1.30;;;;;;;;;;4461908;28;20054;-63
2021/09/15 12:32:10;;;;;;;1.92;1.50;;;;;;;;;;4464477;28;20663;-65
2021/09/15 12:34:30;;;;;;;2.07;1.33;;;;;;;;;;4473549;28;20189;-65
2021/09/15 12:36:41;;;;;;;1.65;1.10;;;;;;;;;;4452568;28;20090;-63
2021/09/15 12:39:01;;;;;;;1.83;1.30;;;;;;;;;;4458757;28;20027;-63
2021/09/15 12:41:11;;;;;;;1.60;1.30;;;;;;;;;;4452875;28;20125;-64
2021/09/15 12:43:31;;;;;;;1.63;1.30;;;;;;;;;;4428072;28;20055;-65
2021/09/15 12:45:46;;;;;;;1.80;1.20;;;;;;;;;;4456906;28;20774;-64
2021/09/15 12:47:57;;;;;;;1.98;1.30;;;;;;;;;;4469243;28;20038;-62
2021/09/15 12:50:16;;;;;;;1.58;1.25;;;;;;;;;;4475036;28;20058;-65
2021/09/15 12:52:28;;;;;;;2.08;1.55;;;;;;;;;;4456151;28;20027;-63
2021/09/15 12:55:02;;;;;;;2.40;1.42;;;;;;;;;;4476108;28;20027;-63
2021/09/15 12:57:15;;;;;;;1.35;1.10;;;;;;;;;;4425034;28;20480;-64
2021/09/15 12:59:26;;;;;;;2.90;1.42;;;;;;;;;;4456342;28;20570;-62
2021/09/15 13:01:36;;;;;;;1.23;1.00;;;;;;;;;;4445849;28;20103;-69
2021/09/15 13:03:55;;;;;;;1.47;1.00;;;;;;;;;;4441317;28;20113;-70
2021/09/15 13:06:06;;;;;;;1.38;1.27;;;;;;;;;;4442807;28;20221;-67
2021/09/15 13:08:29;;;;;;;1.40;1.02;;;;;;;;;;4433519;28;20090;-69
2021/09/15 13:10:39;;;;;;;2.50;1.13;;;;;;;;;;4459882;28;20146;-63
2021/09/15 13:12:50;;;;;;;1.30;1.20;;;;;;;;;;4449277;28;20039;-63
2021/09/15 13:15:03;;;;;;;2.23;1.40;;;;;;;;;;4454240;28;20397;-63
2021/09/15 13:17:14;;;;;;;1.67;1.02;;;;;;;;;;4470044;28;20130;-64
2021/09/15 13:19:24;;;;;;;2.27;1.20;;;;;;;;;;4455337;28;20499;-64
2021/09/15 13:21:35;;;;;;;1.40;0.90;;;;;;;;;;4456039;28;20106;-63
2021/09/15 13:23:45;;;;;;;1.50;0.90;;;;;;;;;;4456255;28;25469;-63
2021/09/15 13:25:58;;;;;;;2.40;1.13;;;;;;;;;;4457509;28;20039;-63
2021/09/15 13:28:09;;;;;;;1.65;1.00;;;;;;;;;;4456146;28;20046;-64
2021/09/15 13:30:20;;;;;;;1.98;1.10;;;;;;;;;;4457046;28;20034;-63
2021/09/15 13:32:30;;;;;;;1.73;1.20;;;;;;;;;;4458003;28;20072;-64
2021/09/15 13:34:41;;;;;;;1.47;1.00;;;;;;;;;;4458607;28;20262;-64